This is the latest recevied weather packets stored in our database for station/object TG5ALY-15. If no packets are shown the sender has not sent any weather packets the latest 10 day(s).
| Time | Temp. | Humidity | Pressure | Rain* | Wind** | Luminosity | Snow |
|---|---|---|---|---|---|---|---|
| 1778234170 | 11.67° C | 91% | 1028.3 hPa | 0 mm | - | 0 W/m² | - |
| 1778232964 | 11.67° C | 91% | 1028.7 hPa | 0 mm | - | 0 W/m² | - |
| 1778231759 | 12.78° C | 89% | 1028.7 hPa | 0 mm | - | 0 W/m² | - |
| 1778230559 | 12.78° C | 89% | 1028.7 hPa | 0 mm | - | 0 W/m² | - |
| 1778229359 | 12.78° C | 91% | 1028.7 hPa | 0 mm | - | 0 W/m² | - |
| 1778228158 | 12.22° C | 92% | 1029.2 hPa | 0 mm | - | 0 W/m² | - |
| 1778226957 | 12.78° C | 89% | 1029.2 hPa | 0 mm | - | 0 W/m² | - |
| 1778225752 | 12.78° C | 90% | 1029.5 hPa | 0 mm | - | 0 W/m² | - |
| 1778224552 | 12.78° C | 90% | 1029.5 hPa | 0 mm | - | 0 W/m² | - |
| 1778223348 | 13.33° C | 90% | 1029.9 hPa | 0 mm | - | 0 W/m² | - |
| 1778222144 | 12.78° C | 92% | 1030.4 hPa | 0 mm | - | 0 W/m² | - |
| 1778220940 | 13.33° C | 91% | 1030.8 hPa | 0 mm | - | 0 W/m² | - |
| 1778219738 | 13.33° C | 90% | 1030.8 hPa | 0 mm | - | 0 W/m² | - |
| 1778218538 | 13.89° C | 88% | 1031.3 hPa | 0 mm | - | 0 W/m² | - |
| 1778217338 | 13.89° C | 88% | 1031.3 hPa | 0 mm | - | 0 W/m² | - |
| 1778216135 | 15° C | 86% | 1031.3 hPa | 0 mm | - | 0 W/m² | - |
| 1778214933 | 15° C | 86% | 1031.3 hPa | 0 mm | - | 0 W/m² | - |
| 1778213733 | 15° C | 83% | 1031.7 hPa | 0 mm | - | 0 W/m² | - |
| 1778212532 | 15° C | 83% | 1031.3 hPa | 0 mm | - | 0 W/m² | - |
| 1778211333 | 15° C | 85% | 1030.8 hPa | 0 mm | - | 0 W/m² | - |
| 1778210133 | 15.56° C | 85% | 1030.4 hPa | 0 mm | - | 0 W/m² | - |
| 1778208930 | 15.56° C | 86% | 1030.4 hPa | 0 mm | - | 0 W/m² | - |
| 1778207729 | 16.11° C | 85% | 1030.4 hPa | 0 mm | - | 0 W/m² | - |
| 1778206526 | 16.11° C | 87% | 1029.9 hPa | 0 mm | - | 0 W/m² | - |
| 1778205327 | 16.67° C | 87% | 1029.5 hPa | 0 mm | - | 0 W/m² | - |
* Rain latest hour (hover to see other rain measurements)
** Current wind speed in m/s (hover to see current wind gust speed)